Time;durP1;ratioP1;P1;durP2;ratioP2;P2;SDS_P1;SDS_P2;PMS_P1;PMS_P2;Temp;Humidity;BMP_temperature;BMP_pressure;BME280_temperature;BME280_humidity;BME280_pressure;Samples;Min_cycle;Max_cycle;Signal;HPM_P1;HPM_P2
2023/01/04 00:00:35;;;;;;;52.50;10.30;;;4.50;68.80;;;;;;5008275;28;45787;-69
2023/01/04 00:03:00;;;;;;;56.33;9.20;;;4.60;68.80;;;;;;5009780;28;46861;-69
2023/01/04 00:05:26;;;;;;;34.73;9.07;;;4.60;68.80;;;;;;5009032;28;46597;-69
2023/01/04 00:07:52;;;;;;;45.80;9.73;;;4.70;68.60;;;;;;5007117;28;46307;-68
2023/01/04 00:10:18;;;;;;;51.77;10.40;;;4.80;68.60;;;;;;5008272;28;46357;-69
2023/01/04 00:12:43;;;;;;;60.28;11.20;;;5.00;68.70;;;;;;5006554;28;46476;-68
2023/01/04 00:15:09;;;;;;;54.70;9.70;;;5.10;68.80;;;;;;5008526;28;45796;-67
2023/01/04 00:17:35;;;;;;;46.33;9.13;;;5.10;69.50;;;;;;5009217;28;46438;-69
2023/01/04 00:20:00;;;;;;;47.93;8.90;;;5.10;69.60;;;;;;5007464;28;45900;-69
2023/01/04 00:22:26;;;;;;;56.53;10.00;;;5.20;69.60;;;;;;5008004;28;46458;-69
2023/01/04 00:24:51;;;;;;;28.00;9.37;;;5.20;68.30;;;;;;5009768;28;46354;-68
2023/01/04 00:27:17;;;;;;;33.07;9.43;;;5.20;69.40;;;;;;5011676;28;47195;-68
2023/01/04 00:29:43;;;;;;;31.33;9.20;;;5.30;69.30;;;;;;5011407;28;46410;-67
2023/01/04 00:32:08;;;;;;;43.60;9.00;;;5.30;69.20;;;;;;5013944;28;46740;-69
2023/01/04 00:34:34;;;;;;;19.63;9.33;;;5.30;69.00;;;;;;5011517;28;46373;-69
2023/01/04 00:36:59;;;;;;;25.13;8.87;;;5.30;69.00;;;;;;5014335;28;46463;-68
2023/01/04 00:39:25;;;;;;;15.07;8.67;;;5.40;69.00;;;;;;5012337;28;46205;-69
2023/01/04 00:41:53;;;;;;;17.13;8.67;;;5.50;68.90;;;;;;5012237;28;46375;-68
2023/01/04 00:44:22;;;;;;;17.17;9.97;;;5.70;67.80;;;;;;5010686;28;46702;-68
2023/01/04 00:46:47;;;;;;;15.03;9.17;;;5.70;68.70;;;;;;5011136;28;46495;-68
2023/01/04 00:49:13;;;;;;;15.20;9.60;;;5.80;68.60;;;;;;5010004;28;46526;-68
2023/01/04 00:51:41;;;;;;;18.30;10.23;;;5.90;68.70;;;;;;5013159;28;45785;-68
2023/01/04 00:54:11;;;;;;;16.90;10.10;;;5.90;68.40;;;;;;5010075;28;46347;-67
2023/01/04 00:56:36;;;;;;;19.27;10.37;;;6.00;68.50;;;;;;5011938;28;47267;-68
2023/01/04 00:59:04;;;;;;;19.37;11.70;;;6.00;68.40;;;;;;5008294;28;46621;-68
2023/01/04 01:01:31;;;;;;;18.90;11.17;;;6.10;68.70;;;;;;5011359;28;46391;-68
2023/01/04 01:04:00;;;;;;;16.37;9.80;;;6.20;69.60;;;;;;5008234;28;45994;-68
2023/01/04 01:06:27;;;;;;;17.43;9.90;;;6.20;69.70;;;;;;5013212;28;46448;-67
2023/01/04 01:08:52;;;;;;;17.93;9.70;;;6.20;69.80;;;;;;5008593;28;46480;-68
2023/01/04 01:11:19;;;;;;;15.07;8.10;;;6.30;69.90;;;;;;5011077;28;46420;-68
2023/01/04 01:13:45;;;;;;;18.07;9.50;;;6.40;70.00;;;;;;5011050;28;46348;-68
2023/01/04 01:16:13;;;;;;;17.77;8.87;;;6.40;69.90;;;;;;5011362;28;46327;-68
2023/01/04 01:18:40;;;;;;;17.67;8.07;;;6.50;69.90;;;;;;5006741;28;46417;-68
2023/01/04 01:21:08;;;;;;;14.70;9.00;;;6.60;69.80;;;;;;5012467;28;46388;-68
2023/01/04 01:23:34;;;;;;;17.60;9.17;;;6.60;69.80;;;;;;5012726;28;46407;-69
2023/01/04 01:26:02;;;;;;;17.70;10.30;;;6.70;69.90;;;;;;5018784;28;46381;-68
2023/01/04 01:28:28;;;;;;;17.00;9.33;;;6.70;69.80;;;;;;5018192;28;46289;-69
2023/01/04 01:30:55;;;;;;;17.93;8.93;;;6.70;70.00;;;;;;5011386;28;46433;-69
2023/01/04 01:33:20;;;;;;;20.63;8.77;;;6.70;70.20;;;;;;5007593;28;46831;-69
2023/01/04 01:35:46;;;;;;;18.20;9.17;;;6.50;70.40;;;;;;5010820;28;46499;-69
2023/01/04 01:38:11;;;;;;;16.50;8.63;;;6.20;71.00;;;;;;5014289;28;46503;-69
2023/01/04 01:40:44;;;;;;;16.10;8.73;;;5.90;71.60;;;;;;5011226;28;46466;-69
2023/01/04 01:43:17;;;;;;;18.10;10.30;;;5.80;72.30;;;;;;5011678;28;46641;-68
2023/01/04 01:45:45;;;;;;;16.37;8.37;;;5.60;72.90;;;;;;5010844;28;47059;-69
2023/01/04 01:48:15;;;;;;;16.33;8.73;;;5.40;74.10;;;;;;5012426;28;46415;-69
2023/01/04 01:50:52;;;;;;;14.20;7.80;;;5.30;73.90;;;;;;5013112;28;46493;-67
2023/01/04 01:53:19;;;;;;;17.63;8.67;;;5.20;73.90;;;;;;5008861;28;46424;-68
2023/01/04 01:55:47;;;;;;;18.30;9.37;;;5.10;75.00;;;;;;5012375;28;47457;-69
2023/01/04 01:58:22;;;;;;;19.03;9.53;;;5.00;73.70;;;;;;5009755;28;46429;-68
2023/01/04 02:00:47;;;;;;;19.70;9.83;;;4.90;73.50;;;;;;5010018;28;46497;-68
2023/01/04 02:03:22;;;;;;;18.10;8.53;;;4.90;73.50;;;;;;5010214;28;46463;-68
2023/01/04 02:05:53;;;;;;;16.77;9.03;;;4.90;73.50;;;;;;5007384;28;46458;-68
2023/01/04 02:08:22;;;;;;;22.60;9.93;;;5.10;73.70;;;;;;5009874;28;46413;-69
2023/01/04 02:10:48;;;;;;;21.60;9.77;;;4.90;73.50;;;;;;5008987;28;46461;-68
2023/01/04 02:13:18;;;;;;;28.20;11.30;;;5.00;73.60;;;;;;5012888;28;46382;-68
2023/01/04 02:16:05;;;;;;;26.95;13.82;;;5.00;73.60;;;;;;5010131;28;46745;-68
2023/01/04 02:18:50;;;;;;;23.33;11.43;;;4.80;73.50;;;;;;5012145;28;46446;-68
2023/01/04 02:21:37;;;;;;;20.23;11.60;;;4.90;73.60;;;;;;5010770;28;46615;-69
2023/01/04 02:24:21;;;;;;;23.20;12.77;;;5.00;73.70;;;;;;5009981;28;46737;-68
2023/01/04 02:27:12;;;;;;;21.33;11.37;;;4.90;73.50;;;;;;5010806;28;46465;-68
2023/01/04 02:30:06;;;;;;;25.02;14.10;;;4.70;74.50;;;;;;5010063;28;45905;-68
2023/01/04 02:32:59;;;;;;;17.43;10.50;;;4.60;75.20;;;;;;5012437;28;46418;-68
2023/01/04 02:35:31;;;;;;;21.60;10.43;;;4.50;75.70;;;;;;5008726;28;46509;-68
2023/01/04 02:38:14;;;;;;;18.53;9.73;;;4.60;75.80;;;;;;5009320;28;48119;-68
2023/01/04 02:41:01;;;;;;;17.30;9.27;;;4.50;75.80;;;;;;5010332;28;46339;-68
2023/01/04 02:46:48;;;;;;;18.60;8.77;;;4.30;75.50;;;;;;5009504;28;46659;-69
2023/01/04 02:51:58;;;;;;;16.83;8.13;;;4.30;75.30;;;;;;5007597;28;46457;-68
2023/01/04 02:54:29;;;;;;;16.93;8.67;;;4.20;75.30;;;;;;5008841;28;46526;-69
2023/01/04 02:57:15;;;;;;;17.30;8.53;;;4.20;75.20;;;;;;5013496;28;46915;-68
2023/01/04 03:00:21;;;;;;;15.53;8.20;;;4.20;75.20;;;;;;5007140;28;47119;-69
2023/01/04 03:06:20;;;;;;;15.13;8.40;;;4.10;75.20;;;;;;5005693;28;46434;-69
2023/01/04 03:09:04;;;;;;;15.17;8.00;;;4.10;75.10;;;;;;5009363;28;46708;-69
2023/01/04 03:14:37;;;;;;;18.30;8.10;;;4.10;75.20;;;;;;5010429;28;46472;-69
2023/01/04 03:17:07;;;;;;;23.50;11.90;;;4.00;75.00;;;;;;5009721;28;46400;-69
2023/01/04 03:19:50;;;;;;;21.23;10.50;;;4.00;75.20;;;;;;5007752;28;46424;-69
2023/01/04 03:36:16;;;;;;;17.75;9.15;;;3.90;75.80;;;;;;5007409;28;46307;-68
2023/01/04 03:50:37;;;;;;;17.27;7.87;;;3.90;77.60;;;;;;5008159;28;46463;-68
2023/01/04 03:53:05;;;;;;;13.07;7.30;;;3.80;78.30;;;;;;5008134;28;46655;-68
2023/01/04 03:55:33;;;;;;;16.60;7.60;;;3.80;78.10;;;;;;5006630;28;46997;-68
2023/01/04 03:57:59;;;;;;;13.93;7.00;;;3.90;78.00;;;;;;5013886;28;46864;-68
2023/01/04 04:00:24;;;;;;;13.90;7.53;;;3.90;77.60;;;;;;5012016;28;47054;-68
2023/01/04 04:02:50;;;;;;;13.80;7.03;;;3.90;77.30;;;;;;5013108;28;46641;-69
2023/01/04 04:10:48;;;;;;;11.43;6.23;;;4.20;76.10;;;;;;5015356;28;46335;-68
2023/01/04 04:13:14;;;;;;;12.63;6.70;;;4.40;75.30;;;;;;5013733;28;46495;-68
2023/01/04 04:15:40;;;;;;;9.87;6.03;;;4.60;74.70;;;;;;5013900;28;46390;-68
2023/01/04 04:18:05;;;;;;;9.87;6.13;;;4.80;74.30;;;;;;5019942;28;45832;-69
2023/01/04 04:20:31;;;;;;;14.60;6.77;;;4.90;73.60;;;;;;5015285;28;46423;-67
2023/01/04 04:22:56;;;;;;;10.27;6.47;;;5.00;73.70;;;;;;5015762;28;46722;-68
2023/01/04 04:25:22;;;;;;;11.70;6.97;;;5.10;73.70;;;;;;5016001;28;46456;-68
2023/01/04 04:27:48;;;;;;;11.53;6.40;;;5.20;73.90;;;;;;5014893;28;46292;-68
2023/01/04 04:30:13;;;;;;;10.00;6.00;;;5.30;73.90;;;;;;5015278;28;46465;-69
2023/01/04 04:32:39;;;;;;;11.10;6.80;;;5.50;74.00;;;;;;5013609;28;46504;-68
2023/01/04 04:35:05;;;;;;;13.23;6.27;;;5.60;73.70;;;;;;5016422;28;46403;-69
2023/01/04 04:37:31;;;;;;;11.67;7.10;;;5.70;73.50;;;;;;5013618;28;46478;-68
2023/01/04 04:39:57;;;;;;;12.93;7.50;;;5.70;73.40;;;;;;5014303;28;46454;-68
2023/01/04 04:42:23;;;;;;;19.00;8.33;;;5.80;73.50;;;;;;5015589;28;46375;-69
2023/01/04 04:44:49;;;;;;;17.03;8.43;;;5.90;72.60;;;;;;5011545;28;46560;-68
2023/01/04 04:47:14;;;;;;;16.47;8.40;;;5.90;73.60;;;;;;5013397;28;46382;-68
2023/01/04 04:49:40;;;;;;;20.00;8.37;;;5.90;74.00;;;;;;5016329;28;46608;-67
2023/01/04 04:52:05;;;;;;;17.80;9.20;;;5.80;74.30;;;;;;5014081;28;46515;-69
2023/01/04 04:54:31;;;;;;;13.03;7.43;;;5.60;74.10;;;;;;5012848;28;46441;-69
2023/01/04 04:56:57;;;;;;;19.50;8.90;;;5.30;75.30;;;;;;5016322;28;46376;-69
2023/01/04 04:59:22;;;;;;;16.93;8.40;;;5.00;76.20;;;;;;5018918;28;46294;-69
2023/01/04 05:01:49;;;;;;;18.60;8.10;;;4.90;76.80;;;;;;5020610;28;46373;-68
2023/01/04 05:04:18;;;;;;;21.33;8.87;;;4.70;77.00;;;;;;5012314;28;46441;-68
2023/01/04 05:06:44;;;;;;;15.90;7.90;;;4.60;77.30;;;;;;5014803;28;46844;-68
2023/01/04 05:09:11;;;;;;;17.57;9.10;;;4.50;77.40;;;;;;5012967;28;46416;-68
2023/01/04 05:14:21;;;;;;;17.23;8.40;;;4.40;77.50;;;;;;5010868;28;46484;-69
2023/01/04 05:16:47;;;;;;;20.53;8.77;;;4.30;77.30;;;;;;5012595;28;46394;-68
2023/01/04 05:19:12;;;;;;;18.80;8.20;;;4.30;77.30;;;;;;5012783;28;46237;-68
2023/01/04 05:21:39;;;;;;;17.93;8.00;;;4.30;77.20;;;;;;5014417;28;46597;-69
2023/01/04 05:24:05;;;;;;;25.50;9.57;;;4.30;77.00;;;;;;5008001;28;46443;-69
2023/01/04 05:26:31;;;;;;;20.60;9.63;;;4.40;76.90;;;;;;5011333;28;46456;-69
2023/01/04 05:28:57;;;;;;;22.17;10.13;;;4.40;76.50;;;;;;5014408;28;46037;-68
2023/01/04 05:31:24;;;;;;;21.70;9.47;;;4.50;76.30;;;;;;5012168;28;46461;-68
2023/01/04 05:33:49;;;;;;;21.13;10.10;;;4.60;76.10;;;;;;5010714;28;47182;-68
2023/01/04 05:36:15;;;;;;;18.73;9.03;;;4.70;75.70;;;;;;5008618;28;46946;-68
2023/01/04 05:38:40;;;;;;;22.27;8.30;;;4.80;75.40;;;;;;5010280;28;46395;-69
2023/01/04 05:42:23;;;;;;;20.07;9.70;;;4.80;75.10;;;;;;5013669;28;46098;-69
2023/01/04 05:43:52;;;;;;;21.80;9.07;;;4.60;75.50;;;;;;5009272;28;46359;-69
2023/01/04 05:46:17;;;;;;;26.47;9.63;;;4.50;75.90;;;;;;5007166;28;46508;-69
2023/01/04 05:48:43;;;;;;;22.10;10.07;;;4.60;75.90;;;;;;5011352;28;46707;-69
2023/01/04 05:51:08;;;;;;;22.70;10.60;;;4.80;75.60;;;;;;5015441;28;46501;-68
2023/01/04 05:53:34;;;;;;;20.63;9.50;;;4.90;75.30;;;;;;5011652;28;47177;-69
2023/01/04 05:55:59;;;;;;;17.53;9.20;;;4.90;75.10;;;;;;5011538;28;46482;-69
2023/01/04 05:58:25;;;;;;;19.40;9.43;;;4.80;75.40;;;;;;5012120;28;46359;-68
2023/01/04 06:00:51;;;;;;;20.13;9.00;;;4.80;75.80;;;;;;5013168;28;45919;-68
2023/01/04 06:03:16;;;;;;;16.90;8.47;;;4.80;75.80;;;;;;5010539;28;46887;-68
2023/01/04 06:05:42;;;;;;;16.80;8.10;;;4.80;75.90;;;;;;5008067;28;46383;-69
2023/01/04 06:08:08;;;;;;;15.70;8.40;;;4.90;75.90;;;;;;5010062;28;46398;-69
2023/01/04 06:10:33;;;;;;;12.33;7.20;;;5.00;75.60;;;;;;5010489;28;46411;-69
2023/01/04 06:12:59;;;;;;;12.37;6.60;;;4.90;75.60;;;;;;5009776;28;47131;-68
2023/01/04 06:15:24;;;;;;;12.93;6.37;;;4.90;75.80;;;;;;5009284;28;46450;-69
2023/01/04 06:17:50;;;;;;;13.07;7.03;;;4.80;76.00;;;;;;5006204;28;46391;-69
2023/01/04 06:20:15;;;;;;;10.77;5.90;;;4.70;76.40;;;;;;5012213;28;46572;-69
2023/01/04 06:22:41;;;;;;;14.47;6.73;;;4.60;76.60;;;;;;5013467;28;47011;-69
2023/01/04 06:25:08;;;;;;;12.33;7.23;;;4.50;76.60;;;;;;5009896;28;46386;-69
2023/01/04 06:27:34;;;;;;;12.90;7.30;;;4.50;77.00;;;;;;5010556;28;46419;-69
2023/01/04 06:30:00;;;;;;;15.13;8.13;;;4.40;77.10;;;;;;5008408;28;46398;-69
2023/01/04 06:32:26;;;;;;;12.27;6.57;;;4.40;77.20;;;;;;5012080;28;48390;-68
2023/01/04 06:34:51;;;;;;;11.83;6.20;;;4.30;77.10;;;;;;5010701;28;46479;-69
2023/01/04 06:37:17;;;;;;;13.37;6.67;;;4.30;77.20;;;;;;5012952;28;46343;-69
2023/01/04 06:39:43;;;;;;;16.13;8.67;;;4.20;77.20;;;;;;5008011;28;46661;-69
2023/01/04 06:42:43;;;;;;;18.10;11.57;;;4.20;77.10;;;;;;5005242;28;46481;-69
2023/01/04 06:44:54;;;;;;;18.60;11.30;;;4.20;76.10;;;;;;5014747;28;46462;-70
2023/01/04 06:47:20;;;;;;;20.30;10.50;;;4.20;77.00;;;;;;5014203;28;46371;-67
2023/01/04 06:49:45;;;;;;;19.20;10.70;;;4.20;77.00;;;;;;5014077;28;46841;-68
2023/01/04 06:52:11;;;;;;;26.20;13.00;;;4.10;77.00;;;;;;5013803;28;46689;-68
2023/01/04 06:54:37;;;;;;;33.00;17.07;;;4.10;77.00;;;;;;5013087;28;46297;-69
2023/01/04 06:57:02;;;;;;;33.17;16.00;;;4.10;77.00;;;;;;5016045;28;46473;-66
2023/01/04 06:59:28;;;;;;;21.40;11.27;;;4.10;78.10;;;;;;5013453;28;46557;-67
2023/01/04 07:01:53;;;;;;;13.77;7.67;;;4.10;76.80;;;;;;5012822;28;46524;-69
2023/01/04 07:04:19;;;;;;;15.87;8.77;;;4.20;76.80;;;;;;5012309;28;46471;-68
2023/01/04 07:06:44;;;;;;;15.90;9.20;;;4.20;76.80;;;;;;5013681;28;45916;-69
2023/01/04 07:09:10;;;;;;;14.87;8.50;;;4.20;76.70;;;;;;5014938;28;46526;-69
2023/01/04 07:11:36;;;;;;;10.63;6.80;;;4.30;76.60;;;;;;5014594;28;46504;-67
2023/01/04 07:14:01;;;;;;;14.27;6.70;;;4.30;76.40;;;;;;5014533;28;46445;-65
2023/01/04 07:16:27;;;;;;;12.40;6.83;;;4.40;76.30;;;;;;5014102;28;46473;-67
2023/01/04 07:18:53;;;;;;;13.80;7.30;;;4.40;76.20;;;;;;5013694;28;46762;-67
2023/01/04 07:21:18;;;;;;;16.93;8.20;;;4.50;76.10;;;;;;5014537;28;46485;-67
2023/01/04 07:23:44;;;;;;;12.43;6.50;;;4.60;76.00;;;;;;5013217;28;46470;-69
2023/01/04 07:26:09;;;;;;;15.27;7.47;;;4.60;75.90;;;;;;5014442;28;46472;-69
2023/01/04 07:31:19;;;;;;;10.73;6.33;;;4.60;75.80;;;;;;5014283;28;46435;-68
2023/01/04 07:33:49;;;;;;;13.30;7.30;;;4.70;75.90;;;;;;5013147;28;46535;-68
2023/01/04 07:36:15;;;;;;;13.30;7.30;;;4.70;75.80;;;;;;5013506;28;46405;-67
2023/01/04 07:38:42;;;;;;;29.87;15.20;;;4.80;75.60;;;;;;5013072;28;46503;-69
2023/01/04 07:41:08;;;;;;;14.50;6.83;;;5.00;75.60;;;;;;5014406;28;47241;-69
2023/01/04 07:43:33;;;;;;;11.50;6.83;;;5.10;75.30;;;;;;5012060;28;46437;-70
2023/01/04 07:45:59;;;;;;;16.33;9.00;;;5.10;75.20;;;;;;5013836;28;45976;-69
2023/01/04 07:48:27;;;;;;;12.67;8.07;;;5.20;75.20;;;;;;5014276;28;46625;-69
2023/01/04 07:50:55;;;;;;;16.07;9.93;;;5.30;74.90;;;;;;5012827;28;46805;-71
2023/01/04 07:53:21;;;;;;;18.43;9.80;;;5.40;74.90;;;;;;5014681;28;46485;-71
2023/01/04 07:55:46;;;;;;;21.30;12.77;;;5.40;74.70;;;;;;5013756;28;46487;-70
2023/01/04 07:58:13;;;;;;;21.03;14.17;;;5.60;74.20;;;;;;5013633;28;46571;-67
2023/01/04 08:00:38;;;;;;;25.83;15.47;;;5.70;74.30;;;;;;5014466;28;46241;-68
2023/01/04 08:03:04;;;;;;;16.60;9.67;;;5.90;74.50;;;;;;5013079;28;46325;-67
2023/01/04 08:05:33;;;;;;;19.03;9.90;;;6.20;74.70;;;;;;5012972;28;46397;-68
2023/01/04 08:07:59;;;;;;;28.43;14.73;;;6.50;74.10;;;;;;5011918;28;46512;-68
2023/01/04 08:10:25;;;;;;;22.07;12.27;;;6.60;73.70;;;;;;5013323;28;46589;-68
2023/01/04 08:12:51;;;;;;;24.87;12.47;;;6.80;73.60;;;;;;5013803;28;46931;-70
2023/01/04 08:15:16;;;;;;;9.23;6.03;;;6.90;73.70;;;;;;5012998;28;46459;-69
2023/01/04 08:17:42;;;;;;;15.97;8.90;;;7.00;73.70;;;;;;5012349;28;47057;-71
2023/01/04 08:20:08;;;;;;;15.80;8.20;;;7.20;73.70;;;;;;5011834;28;47225;-69
2023/01/04 08:22:33;;;;;;;16.90;8.77;;;7.30;73.70;;;;;;5011144;28;46429;-70
2023/01/04 08:24:59;;;;;;;11.27;6.80;;;7.50;72.60;;;;;;5010980;28;46933;-68
2023/01/04 08:27:25;;;;;;;10.63;6.97;;;7.50;73.70;;;;;;5013533;28;46689;-69
2023/01/04 08:29:50;;;;;;;9.80;5.13;;;7.60;73.50;;;;;;5012033;28;47048;-68
2023/01/04 08:32:16;;;;;;;10.20;4.73;;;7.70;73.50;;;;;;5012404;28;45780;-68
2023/01/04 08:34:41;;;;;;;3.73;2.57;;;7.80;73.50;;;;;;5012964;28;46308;-69
2023/01/04 08:37:07;;;;;;;7.40;4.10;;;7.90;74.80;;;;;;5011945;28;46371;-70
2023/01/04 08:39:34;;;;;;;3.90;2.40;;;8.00;73.50;;;;;;5012518;28;46732;-69
2023/01/04 08:42:01;;;;;;;4.20;3.00;;;8.20;73.60;;;;;;5013519;28;46439;-68
2023/01/04 08:44:27;;;;;;;4.17;2.27;;;8.30;73.50;;;;;;5012830;28;46537;-68
2023/01/04 08:46:53;;;;;;;5.40;3.37;;;8.50;73.60;;;;;;5015908;28;46469;-68
2023/01/04 08:49:20;;;;;;;3.80;2.30;;;8.50;73.20;;;;;;5015644;28;46405;-68
2023/01/04 08:51:46;;;;;;;4.40;2.43;;;8.60;73.10;;;;;;5016991;28;45844;-71
2023/01/04 08:54:12;;;;;;;3.37;2.13;;;8.80;72.90;;;;;;5016573;28;46425;-70
2023/01/04 08:56:38;;;;;;;4.23;2.53;;;9.00;72.50;;;;;;5015911;28;46450;-70
2023/01/04 08:59:05;;;;;;;5.03;2.70;;;9.20;72.40;;;;;;5015028;28;47009;-70
2023/01/04 09:01:32;;;;;;;5.20;2.37;;;9.30;72.20;;;;;;5015432;28;46410;-70
2023/01/04 09:03:58;;;;;;;2.37;1.70;;;9.40;72.20;;;;;;5015002;28;46490;-69
2023/01/04 09:06:23;;;;;;;3.67;2.13;;;9.50;72.10;;;;;;5014594;28;46607;-67
2023/01/04 09:08:49;;;;;;;3.60;1.90;;;9.50;72.10;;;;;;5014066;28;46008;-68
2023/01/04 09:11:20;;;;;;;3.10;2.00;;;9.50;72.00;;;;;;5014699;28;46433;-68
2023/01/04 09:13:46;;;;;;;4.20;1.97;;;9.40;71.90;;;;;;5014609;28;46502;-68
2023/01/04 09:16:18;;;;;;;5.50;1.90;;;9.40;72.00;;;;;;5015039;28;46580;-67
2023/01/04 09:18:44;;;;;;;3.67;2.27;;;9.40;71.80;;;;;;5014373;28;47854;-69
2023/01/04 09:21:12;;;;;;;3.57;2.67;;;9.50;71.70;;;;;;5015251;28;46673;-69
2023/01/04 09:23:38;;;;;;;2.73;1.80;;;9.50;71.70;;;;;;5016909;28;46557;-68
2023/01/04 09:26:06;;;;;;;3.33;1.90;;;9.70;70.10;;;;;;5015242;28;46432;-68
2023/01/04 09:28:32;;;;;;;3.37;2.03;;;9.70;71.30;;;;;;5014243;28;47097;-67
2023/01/04 09:31:03;;;;;;;3.10;2.10;;;9.80;70.80;;;;;;5015290;28;46406;-69
2023/01/04 09:33:28;;;;;;;3.40;1.93;;;9.90;70.60;;;;;;5015448;28;46421;-67
2023/01/04 09:35:54;;;;;;;3.70;2.23;;;9.90;70.30;;;;;;5013601;28;46575;-67
2023/01/04 09:38:19;;;;;;;4.10;2.83;;;10.00;69.30;;;;;;5016260;28;46379;-68
2023/01/04 09:41:09;;;;;;;3.93;2.50;;;10.10;69.20;;;;;;5015636;28;45779;-67
2023/01/04 09:43:55;;;;;;;3.40;2.17;;;10.20;68.80;;;;;;5015862;28;46443;-67
2023/01/04 09:46:27;;;;;;;4.10;2.20;;;10.30;68.50;;;;;;5017987;28;46443;-67
2023/01/04 09:49:04;;;;;;;4.13;2.50;;;10.30;68.30;;;;;;5012877;28;46630;-67
2023/01/04 09:51:35;;;;;;;3.37;1.90;;;10.40;68.30;;;;;;5014737;28;46569;-69
2023/01/04 09:54:15;;;;;;;2.93;2.03;;;10.40;68.10;;;;;;5014897;28;46419;-69
2023/01/04 09:56:48;;;;;;;2.43;1.70;;;10.40;67.90;;;;;;5014314;28;45912;-67
2023/01/04 09:59:16;;;;;;;2.60;1.70;;;10.50;67.90;;;;;;5014566;28;46352;-68
2023/01/04 10:01:54;;;;;;;3.43;2.37;;;10.50;67.60;;;;;;5014806;28;46350;-67
2023/01/04 10:04:27;;;;;;;2.97;1.80;;;10.40;67.50;;;;;;5015052;28;46434;-69
2023/01/04 10:06:52;;;;;;;2.57;1.80;;;10.30;67.60;;;;;;5015017;28;46669;-68
2023/01/04 10:09:19;;;;;;;2.60;1.63;;;10.20;67.70;;;;;;5015810;28;47240;-69
2023/01/04 10:12:07;;;;;;;3.50;2.10;;;10.10;67.70;;;;;;5013460;28;46876;-71
2023/01/04 10:14:51;;;;;;;3.63;2.07;;;10.10;67.70;;;;;;5013304;28;46522;-70
2023/01/04 10:17:23;;;;;;;2.27;1.57;;;9.90;68.40;;;;;;5014832;28;46672;-69
2023/01/04 10:20:00;;;;;;;3.20;1.60;;;9.90;68.20;;;;;;5015118;28;46497;-69
2023/01/04 10:22:55;;;;;;;3.27;1.90;;;9.90;68.20;;;;;;5014862;28;46515;-69
2023/01/04 10:25:38;;;;;;;2.63;1.50;;;9.90;68.00;;;;;;5044372;28;46577;-69
2023/01/04 10:28:15;;;;;;;2.37;1.53;;;9.80;68.10;;;;;;5015069;28;46779;-68
2023/01/04 10:30:50;;;;;;;2.43;1.80;;;9.70;68.10;;;;;;5015184;28;47032;-69
2023/01/04 10:33:27;;;;;;;3.27;1.50;;;9.70;68.00;;;;;;5013509;28;46378;-69
2023/01/04 10:35:52;;;;;;;3.00;1.53;;;9.70;67.80;;;;;;5014667;28;46327;-69
2023/01/04 10:38:39;;;;;;;2.70;1.60;;;9.70;67.50;;;;;;5013586;28;46394;-69
2023/01/04 10:41:12;;;;;;;2.33;1.37;;;9.80;67.20;;;;;;5013499;28;47114;-68
2023/01/04 10:43:52;;;;;;;2.63;1.73;;;9.80;67.00;;;;;;5015286;28;46756;-69
2023/01/04 10:46:28;;;;;;;2.30;1.40;;;9.90;66.90;;;;;;5013855;28;46497;-69
2023/01/04 10:49:05;;;;;;;2.60;1.60;;;9.90;66.70;;;;;;5011531;28;46457;-69
2023/01/04 10:51:38;;;;;;;2.23;1.70;;;9.90;66.40;;;;;;5013127;28;46647;-70
2023/01/04 10:54:24;;;;;;;2.03;1.40;;;9.90;66.20;;;;;;5014205;28;46451;-68
2023/01/04 10:57:05;;;;;;;3.73;1.53;;;9.90;65.60;;;;;;5014049;28;45860;-68
2023/01/04 10:59:40;;;;;;;2.50;1.50;;;9.90;65.30;;;;;;5015643;28;46668;-67
2023/01/04 11:02:20;;;;;;;2.97;1.80;;;10.00;64.40;;;;;;5016879;28;46539;-68
2023/01/04 11:05:11;;;;;;;3.47;1.17;;;10.00;64.40;;;;;;5013183;28;46437;-68
2023/01/04 11:07:52;;;;;;;2.30;1.60;;;10.10;64.60;;;;;;5004285;28;47083;-68
2023/01/04 11:10:30;;;;;;;2.53;1.20;;;10.20;63.90;;;;;;5017654;28;46397;-68
2023/01/04 11:12:56;;;;;;;2.33;1.60;;;10.30;63.60;;;;;;5014829;28;48298;-68
2023/01/04 11:15:22;;;;;;;3.60;1.50;;;10.40;63.50;;;;;;5013558;28;46433;-70
2023/01/04 11:17:49;;;;;;;2.10;1.47;;;10.40;63.10;;;;;;5011971;28;46843;-67
2023/01/04 11:20:15;;;;;;;2.17;1.10;;;10.40;63.20;;;;;;5014325;28;46657;-68
2023/01/04 11:22:51;;;;;;;3.53;1.20;;;10.40;63.20;;;;;;5014152;28;46733;-65
2023/01/04 11:25:20;;;;;;;2.47;1.27;;;10.30;63.00;;;;;;5016473;28;46395;-68
2023/01/04 11:27:58;;;;;;;1.87;1.00;;;10.30;63.10;;;;;;5015182;28;46757;-69
2023/01/04 11:30:48;;;;;;;3.57;1.30;;;10.40;62.80;;;;;;5015059;28;46390;-69
2023/01/04 11:33:17;;;;;;;3.30;1.00;;;10.40;62.60;;;;;;5011882;28;46718;-67
2023/01/04 11:35:49;;;;;;;3.07;1.10;;;10.40;62.20;;;;;;5014350;28;46679;-67
2023/01/04 11:38:17;;;;;;;2.10;1.13;;;10.50;62.10;;;;;;5011588;28;46409;-66
2023/01/04 11:41:00;;;;;;;2.50;1.20;;;10.40;61.90;;;;;;5014405;28;46421;-69
2023/01/04 11:43:32;;;;;;;4.90;1.10;;;10.40;61.60;;;;;;5013289;28;46456;-70
2023/01/04 11:46:17;;;;;;;2.60;1.10;;;10.40;61.60;;;;;;5012869;28;46494;-68
2023/01/04 11:48:45;;;;;;;1.83;1.10;;;10.40;61.30;;;;;;5012638;28;46179;-67
2023/01/04 11:51:25;;;;;;;2.40;1.20;;;10.40;61.40;;;;;;5013714;28;46462;-68
2023/01/04 11:54:04;;;;;;;2.17;1.20;;;10.40;61.00;;;;;;5011751;28;46347;-66
2023/01/04 11:56:31;;;;;;;2.43;1.20;;;10.40;61.00;;;;;;5013478;28;46462;-68
2023/01/04 11:59:16;;;;;;;2.50;1.30;;;10.40;61.00;;;;;;5012341;28;46476;-68
2023/01/04 12:01:48;;;;;;;3.90;1.30;;;10.40;60.90;;;;;;5013169;28;46654;-67
2023/01/04 12:04:14;;;;;;;1.97;1.20;;;10.30;60.90;;;;;;5011202;28;47155;-67
2023/01/04 12:06:39;;;;;;;2.97;1.53;;;10.30;61.20;;;;;;5012443;28;46485;-66
2023/01/04 12:09:05;;;;;;;2.30;1.33;;;10.30;60.70;;;;;;5012368;28;46823;-69
2023/01/04 12:11:33;;;;;;;1.80;1.10;;;10.30;60.50;;;;;;5013566;28;46613;-68
2023/01/04 12:13:59;;;;;;;4.13;1.20;;;10.30;60.20;;;;;;5013533;28;46398;-69
2023/01/04 12:16:47;;;;;;;5.00;1.33;;;10.30;60.30;;;;;;5012991;28;46394;-67
2023/01/04 12:19:15;;;;;;;1.87;1.10;;;10.30;60.10;;;;;;5014087;28;46409;-67
2023/01/04 12:21:44;;;;;;;2.50;1.50;;;10.30;60.00;;;;;;5018082;28;46414;-66
2023/01/04 12:24:20;;;;;;;2.77;1.13;;;10.40;60.00;;;;;;5016658;28;48780;-68
2023/01/04 12:26:47;;;;;;;2.20;1.20;;;10.40;59.80;;;;;;5015099;28;46412;-67
2023/01/04 12:29:22;;;;;;;2.67;1.43;;;10.40;59.70;;;;;;5017324;28;46479;-69
2023/01/04 12:31:52;;;;;;;2.20;1.00;;;10.40;59.50;;;;;;5017670;28;45887;-69
2023/01/04 12:34:24;;;;;;;2.10;1.27;;;10.40;59.40;;;;;;5016232;28;47044;-69
2023/01/04 12:36:59;;;;;;;2.73;1.00;;;10.50;59.10;;;;;;5016564;28;45892;-69
2023/01/04 12:39:37;;;;;;;2.13;1.13;;;10.50;58.90;;;;;;5017176;28;46458;-68
2023/01/04 12:42:06;;;;;;;2.00;1.10;;;10.50;58.70;;;;;;5016919;28;46727;-68
2023/01/04 12:44:38;;;;;;;3.47;1.30;;;10.40;58.40;;;;;;5016871;28;47274;-68
2023/01/04 12:50:12;;;;;;;1.60;0.90;;;10.40;57.90;;;;;;5014694;28;45801;-67
2023/01/04 12:52:47;;;;;;;2.30;1.10;;;10.50;57.80;;;;;;5015648;28;46413;-68
2023/01/04 12:55:31;;;;;;;2.10;1.10;;;10.50;57.40;;;;;;5015083;28;46674;-68
2023/01/04 12:57:58;;;;;;;4.67;1.50;;;10.60;57.00;;;;;;5014546;28;46406;-66
2023/01/04 13:00:48;;;;;;;1.57;1.00;;;10.60;57.10;;;;;;5014917;28;46858;-67
2023/01/04 13:03:14;;;;;;;2.20;1.20;;;10.70;56.50;;;;;;5016788;28;46087;-67
2023/01/04 13:05:44;;;;;;;3.67;2.00;;;10.80;56.50;;;;;;5013271;28;46474;-66
2023/01/04 13:08:13;;;;;;;2.00;1.20;;;10.80;56.00;;;;;;5016772;28;46532;-68
2023/01/04 13:10:51;;;;;;;2.30;1.00;;;10.80;54.50;;;;;;5013336;28;46664;-68
2023/01/04 13:13:25;;;;;;;3.10;0.93;;;10.80;55.50;;;;;;5016209;28;46470;-68
2023/01/04 13:16:05;;;;;;;1.60;0.90;;;10.90;55.20;;;;;;5015645;28;47206;-68
2023/01/04 13:18:35;;;;;;;2.10;1.10;;;10.90;55.20;;;;;;5016345;28;46613;-67
2023/01/04 13:21:30;;;;;;;2.60;1.17;;;11.00;55.00;;;;;;5015431;28;46343;-67
2023/01/04 13:24:03;;;;;;;2.23;1.20;;;10.90;52.50;;;;;;5012748;28;46485;-69
2023/01/04 13:26:35;;;;;;;3.20;1.00;;;10.90;52.40;;;;;;5014738;28;48126;-68
2023/01/04 13:29:19;;;;;;;2.53;1.00;;;10.90;52.50;;;;;;5013777;28;46469;-70
2023/01/04 13:31:47;;;;;;;1.90;1.07;;;10.90;52.50;;;;;;5015742;28;46676;-67
2023/01/04 13:34:18;;;;;;;3.10;0.90;;;10.90;52.50;;;;;;5014689;28;46576;-68
2023/01/04 13:36:57;;;;;;;2.60;1.00;;;10.90;52.50;;;;;;5015737;28;47116;-69
2023/01/04 13:39:23;;;;;;;2.20;0.87;;;10.90;52.50;;;;;;5014691;28;46520;-67
2023/01/04 13:41:49;;;;;;;3.70;1.67;;;10.90;52.50;;;;;;5015685;28;46419;-68
2023/01/04 13:44:26;;;;;;;2.15;1.23;;;10.90;52.50;;;;;;5013717;28;46355;-68
2023/01/04 13:46:54;;;;;;;1.70;0.90;;;10.90;51.10;;;;;;5014825;28;46421;-67
2023/01/04 13:49:20;;;;;;;3.53;0.77;;;10.90;50.80;;;;;;5014546;28;46845;-69
2023/01/04 13:51:45;;;;;;;1.83;1.10;;;10.90;51.10;;;;;;5013403;28;46461;-65
2023/01/04 13:54:20;;;;;;;2.27;1.10;;;10.90;51.10;;;;;;5015671;28;46877;-67